createdAt,value
2018-12-26T12:32:44.257Z,6.63
2018-12-26T12:37:52.277Z,7.00
2018-12-26T12:43:00.226Z,7.20
2018-12-26T12:48:06.580Z,7.20
2018-12-26T12:53:13.808Z,8.53
2018-12-26T12:58:21.670Z,8.17
2018-12-26T13:03:29.732Z,9.43
2018-12-26T13:08:35.920Z,10.23
2018-12-26T13:13:43.636Z,9.60
2018-12-26T13:18:52.207Z,10.40
2018-12-26T13:24:00.189Z,11.67
2018-12-26T13:29:08.032Z,13.73
2018-12-26T13:34:14.346Z,13.27
2018-12-26T13:39:21.473Z,13.23
2018-12-26T13:44:29.315Z,15.03
2018-12-26T13:49:35.642Z,13.10
2018-12-26T13:54:42.885Z,14.07
2018-12-26T13:59:52.400Z,14.27
2018-12-26T14:05:00.029Z,11.47
2018-12-26T14:10:07.130Z,12.37
2018-12-26T14:15:13.235Z,12.93
2018-12-26T14:20:21.332Z,12.67
2018-12-26T14:25:29.127Z,11.33
2018-12-26T14:30:35.415Z,10.70
2018-12-26T14:35:54.355Z,10.97
2018-12-26T14:41:01.462Z,11.60
2018-12-26T14:46:09.242Z,9.60
2018-12-26T14:51:26.315Z,12.10
2018-12-26T14:56:29.395Z,10.73
2018-12-26T15:01:35.746Z,10.90
2018-12-26T15:06:42.672Z,9.73
2018-12-26T15:11:50.188Z,10.33
2018-12-26T15:16:56.460Z,10.50
2018-12-26T15:22:03.245Z,9.17
2018-12-26T15:27:11.326Z,9.83
2018-12-26T15:32:19.587Z,8.93
2018-12-26T15:37:26.089Z,8.50
2018-12-26T15:42:33.349Z,8.67
2018-12-26T15:47:41.215Z,9.97
2018-12-26T15:52:47.416Z,11.33
2018-12-26T15:57:53.658Z,11.83
2018-12-26T16:03:01.507Z,11.60
2018-12-26T16:08:09.257Z,11.60
2018-12-26T16:13:15.204Z,10.37
2018-12-26T16:18:22.501Z,15.57
2018-12-26T16:23:29.703Z,12.27
2018-12-26T16:28:36.037Z,11.20
2018-12-26T16:33:43.090Z,9.97
2018-12-26T16:38:50.654Z,10.13
2018-12-26T16:43:56.680Z,10.00
2018-12-26T16:49:03.195Z,12.20
2018-12-26T16:54:11.006Z,11.67
2018-12-26T16:59:18.680Z,11.77
2018-12-26T17:04:24.808Z,13.57
2018-12-26T17:09:32.424Z,14.47
2018-12-26T17:14:39.880Z,12.33
2018-12-26T17:19:48.270Z,13.13
2018-12-26T17:24:54.543Z,13.47
2018-12-26T17:30:02.241Z,14.53
2018-12-26T17:35:09.243Z,12.23
2018-12-26T17:40:15.635Z,13.87
2018-12-26T17:45:24.748Z,13.43
2018-12-26T17:50:57.736Z,12.40
2018-12-26T17:56:31.747Z,13.17
2018-12-26T18:01:54.233Z,13.30
2018-12-26T18:07:01.044Z,15.63
2018-12-26T18:12:12.140Z,13.30
2018-12-26T18:17:16.811Z,14.30
2018-12-26T18:22:23.364Z,13.87
2018-12-26T18:27:31.127Z,12.43
2018-12-26T18:32:38.925Z,12.93
2018-12-26T18:37:45.047Z,13.00
2018-12-26T18:42:52.473Z,17.70
2018-12-26T18:48:00.715Z,18.57
2018-12-26T18:53:06.734Z,12.57
2018-12-26T18:58:13.166Z,14.43
2018-12-26T19:03:20.768Z,14.40
2018-12-26T19:08:28.558Z,16.10
2018-12-26T19:13:34.455Z,18.37
2018-12-26T19:18:41.994Z,17.80
2018-12-26T19:24:15.745Z,19.33
2018-12-26T19:29:23.534Z,22.03
2018-12-26T19:34:31.344Z,28.00
2018-12-26T19:39:39.001Z,22.87
2018-12-26T19:44:45.984Z,23.00
2018-12-26T19:49:53.210Z,21.93
2018-12-26T19:55:00.974Z,19.67
2018-12-26T20:00:07.923Z,19.30
2018-12-26T20:05:13.995Z,22.83
2018-12-26T20:10:21.043Z,19.13
2018-12-26T20:15:28.415Z,18.13
2018-12-26T20:20:34.707Z,19.07
2018-12-26T20:25:42.443Z,23.70
2018-12-26T20:30:50.038Z,17.20
2018-12-26T20:35:56.099Z,18.60
2018-12-26T20:41:02.995Z,17.83
2018-12-26T20:46:09.728Z,18.30
2018-12-26T20:51:17.398Z,18.60
2018-12-26T20:56:23.721Z,20.93
2018-12-26T21:01:31.006Z,21.63
2018-12-26T21:06:38.672Z,24.07
2018-12-26T21:11:44.769Z,24.37
2018-12-26T21:16:55.134Z,23.33
2018-12-26T21:22:01.587Z,23.03
2018-12-26T21:27:09.447Z,21.03
2018-12-26T21:32:15.384Z,20.50
2018-12-26T21:37:22.855Z,20.30
2018-12-26T21:42:29.794Z,19.47
2018-12-26T21:47:36.380Z,21.63
2018-12-26T21:52:43.163Z,20.37
2018-12-26T21:57:50.867Z,20.43
2018-12-26T22:02:58.519Z,19.20
2018-12-26T22:08:04.419Z,16.93
2018-12-26T22:13:11.355Z,15.37
2018-12-26T22:18:19.159Z,17.13
2018-12-26T22:23:25.066Z,16.33
2018-12-26T22:28:32.383Z,17.17
2018-12-26T22:33:38.414Z,16.63
2018-12-26T22:38:44.653Z,19.00
2018-12-26T22:43:52.312Z,19.37
2018-12-26T22:49:00.021Z,21.03
2018-12-26T22:54:06.311Z,19.77
2018-12-26T22:59:13.167Z,18.40
2018-12-26T23:04:20.774Z,17.50
2018-12-26T23:09:28.331Z,17.00
2018-12-26T23:14:34.307Z,16.63
2018-12-26T23:19:41.156Z,15.53
2018-12-26T23:24:48.894Z,14.93
2018-12-26T23:29:54.900Z,16.37
2018-12-26T23:35:02.584Z,15.70
2018-12-26T23:40:09.185Z,15.27
2018-12-26T23:45:15.920Z,13.67
2018-12-26T23:50:23.339Z,13.47
2018-12-26T23:55:31.078Z,14.37
